createdAt,value
2022-12-25T00:02:14.904Z,64.83
2022-12-25T00:04:41.265Z,65.48
2022-12-25T00:07:07.555Z,65.28
2022-12-25T00:09:33.895Z,64.39
2022-12-25T00:12:00.178Z,64.56
2022-12-25T00:14:26.542Z,64.47
2022-12-25T00:16:52.828Z,66.29
2022-12-25T00:19:19.102Z,65.19
2022-12-25T00:21:45.383Z,65.34
2022-12-25T00:24:11.693Z,64.88
2022-12-25T00:26:39.135Z,64.96
2022-12-25T00:29:05.507Z,65.23
2022-12-25T00:31:31.940Z,65.09
2022-12-25T00:33:58.247Z,65.50
2022-12-25T00:36:24.610Z,65.53
2022-12-25T00:38:50.913Z,64.91
2022-12-25T00:41:39.700Z,65.14
2022-12-25T00:44:06.449Z,64.67
2022-12-25T00:46:32.806Z,64.56
2022-12-25T00:49:00.052Z,65.47
2022-12-25T00:51:26.339Z,65.14
2022-12-25T00:53:52.619Z,65.58
2022-12-25T00:56:18.920Z,64.75
2022-12-25T00:58:46.015Z,64.32
2022-12-25T01:01:12.403Z,64.77
2022-12-25T01:03:38.732Z,64.79
2022-12-25T01:06:05.851Z,64.39
2022-12-25T01:08:33.080Z,63.71
2022-12-25T01:11:00.174Z,63.65
2022-12-25T01:13:26.784Z,63.39
2022-12-25T01:15:54.198Z,63.23
2022-12-25T01:18:20.699Z,63.52
2022-12-25T01:20:47.143Z,63.70
2022-12-25T01:23:13.476Z,64.23
2022-12-25T01:25:39.767Z,64.71
2022-12-25T01:28:06.126Z,65.03
2022-12-25T01:30:32.480Z,64.65
2022-12-25T01:32:58.799Z,65.07
2022-12-25T01:35:25.060Z,65.51
2022-12-25T01:37:51.442Z,65.16
2022-12-25T01:40:17.779Z,64.42
2022-12-25T01:42:44.052Z,64.08
2022-12-25T01:45:28.803Z,63.01
2022-12-25T01:47:55.100Z,62.75
2022-12-25T01:50:21.390Z,63.05
2022-12-25T01:52:47.792Z,62.64
2022-12-25T01:55:14.095Z,62.37
2022-12-25T01:57:40.381Z,62.60
2022-12-25T02:00:06.966Z,62.44
2022-12-25T02:02:33.526Z,62.51
2022-12-25T02:05:01.536Z,62.93
2022-12-25T02:07:27.838Z,62.26
2022-12-25T02:09:54.145Z,62.32
2022-12-25T02:12:30.449Z,62.14
2022-12-25T02:15:04.632Z,61.82
2022-12-25T02:17:42.582Z,61.57
2022-12-25T02:20:27.970Z,61.77
2022-12-25T02:22:57.521Z,61.80
2022-12-25T02:25:31.338Z,61.29
2022-12-25T02:28:11.008Z,62.00
2022-12-25T02:30:39.674Z,61.89
2022-12-25T02:33:51.128Z,61.67
2022-12-25T02:36:19.061Z,62.16
2022-12-25T02:39:04.060Z,61.27
2022-12-25T02:41:31.307Z,61.49
2022-12-25T02:44:16.347Z,61.28
2022-12-25T02:47:01.009Z,61.73
2022-12-25T02:49:45.787Z,62.46
2022-12-25T02:52:31.019Z,62.07
2022-12-25T02:55:17.848Z,61.37
2022-12-25T02:58:03.625Z,61.75
2022-12-25T03:00:49.179Z,63.00
2022-12-25T03:03:34.171Z,64.49
2022-12-25T03:06:19.725Z,64.77
2022-12-25T03:08:47.351Z,64.69
2022-12-25T03:11:31.604Z,64.03
2022-12-25T03:14:18.921Z,63.37
2022-12-25T03:16:51.706Z,65.26
2022-12-25T03:19:36.813Z,65.18
2022-12-25T03:22:21.792Z,64.23
2022-12-25T03:25:06.961Z,63.50
2022-12-25T03:27:33.466Z,62.70
2022-12-25T03:30:18.512Z,62.53
2022-12-25T03:32:59.183Z,64.14
2022-12-25T03:35:34.641Z,64.92
2022-12-25T03:38:29.775Z,64.74
2022-12-25T03:41:20.896Z,65.36
2022-12-25T03:44:08.713Z,66.63
2022-12-25T03:46:54.048Z,66.29
2022-12-25T03:49:41.901Z,65.16
2022-12-25T03:52:26.591Z,65.46
2022-12-25T03:55:11.637Z,64.66
2022-12-25T03:57:56.753Z,64.73
2022-12-25T04:00:41.702Z,64.89
2022-12-25T04:03:26.645Z,64.60
2022-12-25T04:06:11.305Z,64.48
2022-12-25T04:08:56.117Z,64.24
2022-12-25T04:11:40.819Z,63.97
2022-12-25T04:14:25.585Z,64.42
2022-12-25T04:17:10.374Z,65.29
2022-12-25T04:19:55.272Z,65.72
2022-12-25T04:22:40.180Z,65.15
2022-12-25T04:25:25.359Z,63.77
2022-12-25T04:28:10.122Z,63.75
2022-12-25T04:30:55.014Z,62.23
2022-12-25T04:33:39.789Z,62.51
2022-12-25T04:36:12.489Z,62.57
2022-12-25T04:38:38.936Z,62.72
2022-12-25T04:41:05.234Z,63.12
2022-12-25T04:43:31.531Z,63.44
2022-12-25T04:45:58.410Z,64.73
2022-12-25T04:48:25.073Z,65.82
2022-12-25T04:50:51.392Z,65.62
2022-12-25T04:53:17.667Z,64.90
2022-12-25T04:55:43.955Z,65.93
2022-12-25T04:58:10.223Z,65.48
2022-12-25T05:00:36.505Z,64.05
2022-12-25T05:03:03.050Z,62.52
2022-12-25T05:05:29.441Z,62.29
2022-12-25T05:07:56.297Z,61.90
2022-12-25T05:10:22.583Z,61.54
2022-12-25T05:12:48.862Z,60.91
2022-12-25T05:15:15.221Z,60.31
2022-12-25T05:17:41.551Z,59.75
2022-12-25T05:20:07.924Z,59.66
2022-12-25T05:22:34.212Z,60.27
2022-12-25T05:25:00.477Z,59.85
2022-12-25T05:27:26.742Z,59.97
2022-12-25T05:29:53.055Z,59.83
2022-12-25T05:32:19.361Z,60.45
2022-12-25T05:34:45.658Z,60.47
2022-12-25T05:37:12.072Z,60.16
2022-12-25T05:39:38.361Z,60.19
2022-12-25T05:42:04.705Z,60.53
2022-12-25T05:44:30.998Z,59.95
2022-12-25T05:46:57.341Z,58.93
2022-12-25T05:49:23.714Z,58.73
2022-12-25T05:51:49.981Z,59.11
2022-12-25T05:54:16.871Z,60.01
2022-12-25T05:56:43.132Z,60.13
2022-12-25T05:59:09.650Z,59.92
2022-12-25T06:01:35.996Z,59.84
2022-12-25T06:04:07.020Z,59.92
2022-12-25T06:06:36.568Z,59.29
2022-12-25T06:09:02.842Z,59.14
2022-12-25T06:11:29.130Z,58.87
2022-12-25T06:13:55.698Z,59.00
2022-12-25T06:16:22.030Z,58.95
2022-12-25T06:18:48.929Z,58.75
2022-12-25T06:21:15.291Z,59.31
2022-12-25T06:23:41.685Z,59.39
2022-12-25T06:26:08.896Z,59.80
2022-12-25T06:28:35.348Z,59.26
2022-12-25T06:31:27.918Z,58.42
2022-12-25T06:33:54.298Z,58.66
2022-12-25T06:36:21.741Z,59.15
2022-12-25T06:38:48.006Z,59.17
2022-12-25T06:41:15.430Z,60.37
2022-12-25T06:43:41.715Z,60.22
2022-12-25T06:46:09.486Z,59.86
2022-12-25T06:48:35.891Z,59.00
2022-12-25T06:51:02.837Z,58.67
2022-12-25T06:53:33.506Z,58.37
2022-12-25T06:56:04.424Z,58.93
2022-12-25T06:58:30.703Z,59.24
2022-12-25T07:00:57.926Z,59.43
2022-12-25T07:03:24.367Z,58.65
2022-12-25T07:05:50.852Z,58.18
2022-12-25T07:08:17.120Z,57.63
2022-12-25T07:10:43.399Z,57.74
2022-12-25T07:13:09.705Z,57.32
2022-12-25T07:15:36.032Z,57.57
2022-12-25T07:18:02.298Z,58.03
2022-12-25T07:20:29.944Z,57.42
2022-12-25T07:22:56.277Z,56.80
2022-12-25T07:25:22.550Z,56.76
2022-12-25T07:27:48.854Z,56.88
2022-12-25T07:30:15.134Z,56.58
2022-12-25T07:32:44.366Z,56.94
2022-12-25T07:35:15.453Z,57.00
2022-12-25T07:37:41.903Z,56.93
2022-12-25T07:40:08.517Z,56.69
2022-12-25T07:42:34.803Z,57.01
2022-12-25T07:45:01.128Z,56.85
2022-12-25T07:47:27.395Z,56.70
2022-12-25T07:49:53.686Z,56.34
2022-12-25T07:52:20.032Z,55.86
2022-12-25T07:54:46.313Z,55.92
2022-12-25T07:57:12.584Z,56.10
2022-12-25T07:59:38.858Z,55.68
2022-12-25T08:02:05.281Z,56.18
2022-12-25T08:04:31.743Z,56.55
2022-12-25T08:06:58.027Z,56.38
2022-12-25T08:09:24.402Z,56.30
2022-12-25T08:11:50.695Z,56.05
2022-12-25T08:14:16.997Z,56.12
2022-12-25T08:16:43.350Z,56.26
2022-12-25T08:19:10.072Z,55.96
2022-12-25T08:21:36.413Z,56.44
2022-12-25T08:24:03.188Z,56.41
2022-12-25T08:26:29.537Z,56.64
2022-12-25T08:28:55.810Z,56.82
2022-12-25T08:31:22.978Z,55.93
2022-12-25T08:33:49.694Z,56.47
2022-12-25T08:36:16.028Z,55.36
2022-12-25T08:38:42.407Z,55.34
2022-12-25T08:41:09.011Z,55.25
2022-12-25T08:43:35.306Z,56.83
2022-12-25T08:46:01.653Z,56.97
2022-12-25T08:48:28.061Z,55.70
2022-12-25T08:50:54.487Z,55.33
2022-12-25T08:53:20.842Z,56.27
2022-12-25T08:55:47.471Z,55.55
2022-12-25T08:58:14.568Z,55.49
2022-12-25T09:00:40.911Z,55.62
2022-12-25T09:03:07.263Z,55.60
2022-12-25T09:05:36.458Z,56.58
2022-12-25T09:08:02.755Z,56.60
2022-12-25T09:10:29.169Z,57.13
2022-12-25T09:12:55.459Z,57.30
2022-12-25T09:15:21.762Z,56.86
2022-12-25T09:17:48.080Z,57.40
2022-12-25T09:20:14.366Z,56.77
2022-12-25T09:22:40.669Z,56.59
2022-12-25T09:25:07.078Z,57.23
2022-12-25T09:27:33.378Z,59.33
2022-12-25T09:29:59.646Z,58.73
2022-12-25T09:32:25.911Z,58.16
2022-12-25T09:34:52.182Z,57.87
2022-12-25T09:37:18.469Z,57.81
2022-12-25T09:39:46.556Z,57.64
2022-12-25T09:42:16.058Z,57.37
2022-12-25T09:45:05.618Z,56.92
2022-12-25T09:47:32.497Z,57.23
2022-12-25T09:50:11.650Z,56.72
2022-12-25T09:52:46.398Z,56.73
2022-12-25T09:55:19.779Z,55.88
2022-12-25T09:57:48.266Z,55.29
2022-12-25T10:00:21.439Z,54.83
